createdAt,value
2019-03-11T00:01:37.963Z,21.44
2019-03-11T00:04:07.523Z,21.41
2019-03-11T00:06:37.072Z,21.04
2019-03-11T00:09:06.562Z,21.34
2019-03-11T00:11:35.514Z,21.31
2019-03-11T00:14:04.567Z,21.29
2019-03-11T00:16:33.500Z,21.25
2019-03-11T00:19:02.498Z,21.22
2019-03-11T00:21:31.322Z,21.20
2019-03-11T00:24:00.195Z,21.17
2019-03-11T00:26:29.058Z,21.15
2019-03-11T00:28:57.870Z,21.11
2019-03-11T00:31:26.741Z,21.08
2019-03-11T00:33:55.706Z,21.05
2019-03-11T00:36:24.567Z,21.04
2019-03-11T00:38:53.448Z,21.01
2019-03-11T00:41:22.305Z,21.00
2019-03-11T00:43:52.652Z,20.96
2019-03-11T00:46:21.557Z,20.94
2019-03-11T00:48:51.921Z,20.93
2019-03-11T00:51:20.805Z,20.93
2019-03-11T00:53:49.686Z,20.95
2019-03-11T00:56:18.615Z,20.94
2019-03-11T00:58:47.453Z,20.94
2019-03-11T01:01:16.423Z,20.95
2019-03-11T01:03:45.339Z,20.94
2019-03-11T01:06:14.229Z,20.95
2019-03-11T01:08:43.121Z,20.97
2019-03-11T01:11:11.956Z,20.95
2019-03-11T01:13:40.756Z,20.96
2019-03-11T01:16:09.631Z,20.95
2019-03-11T01:18:38.540Z,20.95
2019-03-11T01:21:07.436Z,20.93
2019-03-11T01:23:36.244Z,20.91
2019-03-11T01:26:05.018Z,20.89
2019-03-11T01:28:33.876Z,20.87
2019-03-11T01:31:02.717Z,20.85
2019-03-11T01:33:31.652Z,20.82
2019-03-11T01:36:00.580Z,20.78
2019-03-11T01:38:29.549Z,20.76
2019-03-11T01:40:58.403Z,20.74
2019-03-11T01:43:27.246Z,20.70
2019-03-11T01:45:56.078Z,20.68
2019-03-11T01:48:25.010Z,20.65
2019-03-11T01:50:53.922Z,20.64
2019-03-11T01:53:22.866Z,20.61
2019-03-11T01:55:51.653Z,20.58
2019-03-11T01:58:20.416Z,20.55
2019-03-11T02:00:49.195Z,20.54
2019-03-11T02:03:18.056Z,20.51
2019-03-11T02:05:46.916Z,20.49
2019-03-11T02:08:15.773Z,20.48
2019-03-11T02:10:44.680Z,20.47
2019-03-11T02:13:13.628Z,20.48
2019-03-11T02:15:42.513Z,20.47
2019-03-11T02:18:11.403Z,20.47
2019-03-11T02:20:40.277Z,20.48
2019-03-11T02:23:09.163Z,20.47
2019-03-11T02:25:38.073Z,20.48
2019-03-11T02:28:06.964Z,20.50
2019-03-11T02:30:35.833Z,20.49
2019-03-11T02:33:04.770Z,20.50
2019-03-11T02:35:33.612Z,20.50
2019-03-11T02:38:02.508Z,20.50
2019-03-11T02:40:31.355Z,20.50
2019-03-11T02:43:00.255Z,20.49
2019-03-11T02:45:29.131Z,20.49
2019-03-11T02:47:57.918Z,20.47
2019-03-11T02:50:26.849Z,20.46
2019-03-11T02:52:55.828Z,20.44
2019-03-11T02:55:24.689Z,20.43
2019-03-11T02:57:53.592Z,20.40
2019-03-11T03:00:22.533Z,20.38
2019-03-11T03:03:13.387Z,20.36
2019-03-11T03:05:48.441Z,20.34
2019-03-11T03:08:17.358Z,20.31
2019-03-11T03:10:46.202Z,20.27
2019-03-11T03:13:14.979Z,20.26
2019-03-11T03:15:43.863Z,20.23
2019-03-11T03:18:12.669Z,20.22
2019-03-11T03:20:41.610Z,20.20
2019-03-11T03:23:10.461Z,20.17
2019-03-11T03:25:39.355Z,20.11
2019-03-11T03:28:08.350Z,20.16
2019-03-11T03:30:37.170Z,20.15
2019-03-11T03:33:05.971Z,20.15
2019-03-11T03:35:34.786Z,20.15
2019-03-11T03:38:03.665Z,20.16
2019-03-11T03:40:32.518Z,20.15
2019-03-11T03:43:01.481Z,20.15
2019-03-11T03:45:32.452Z,20.17
2019-03-11T03:48:01.624Z,20.16
2019-03-11T03:50:32.227Z,20.17
2019-03-11T03:53:01.176Z,20.16
2019-03-11T03:55:30.098Z,20.17
2019-03-11T03:57:59.010Z,20.16
2019-03-11T04:00:27.894Z,20.17
2019-03-11T04:02:56.807Z,20.16
2019-03-11T04:05:25.633Z,20.16
2019-03-11T04:07:54.465Z,20.15
2019-03-11T04:10:23.383Z,20.14
2019-03-11T04:12:52.172Z,20.13
2019-03-11T04:15:21.049Z,20.12
2019-03-11T04:17:49.950Z,20.11
2019-03-11T04:20:19.355Z,20.09
2019-03-11T04:22:48.317Z,20.07
2019-03-11T04:25:17.230Z,20.04
2019-03-11T04:27:46.098Z,20.03
2019-03-11T04:30:17.237Z,20.00
2019-03-11T04:32:46.162Z,19.99
2019-03-11T04:35:14.979Z,19.95
2019-03-11T04:37:44.001Z,19.93
2019-03-11T04:40:13.479Z,19.92
2019-03-11T04:42:42.443Z,19.90
2019-03-11T04:45:12.297Z,19.89
2019-03-11T04:47:41.142Z,19.87
2019-03-11T04:50:11.835Z,19.86
2019-03-11T04:52:40.628Z,19.84
2019-03-11T04:55:10.532Z,19.84
2019-03-11T04:57:44.063Z,19.85
2019-03-11T05:00:15.309Z,19.85
2019-03-11T05:02:44.202Z,19.85
2019-03-11T05:05:13.148Z,19.87
2019-03-11T05:07:42.020Z,19.86
2019-03-11T05:10:11.033Z,19.86
2019-03-11T05:12:39.873Z,19.87
2019-03-11T05:15:09.028Z,19.87
2019-03-11T05:17:37.852Z,19.88
2019-03-11T05:20:07.194Z,19.89
2019-03-11T05:22:36.015Z,19.91
2019-03-11T05:25:05.494Z,19.90
2019-03-11T05:27:34.392Z,19.92
2019-03-11T05:30:03.330Z,19.92
2019-03-11T05:32:32.279Z,19.93
2019-03-11T05:35:01.086Z,19.93
2019-03-11T05:37:30.008Z,19.92
2019-03-11T05:39:58.918Z,19.92
2019-03-11T05:42:27.757Z,19.90
2019-03-11T05:44:56.685Z,19.89
2019-03-11T05:47:25.643Z,19.88
2019-03-11T05:49:54.543Z,19.86
2019-03-11T05:52:23.388Z,19.84
2019-03-11T05:54:52.243Z,19.83
2019-03-11T05:57:21.143Z,19.81
2019-03-11T05:59:49.973Z,19.80
2019-03-11T06:02:18.955Z,19.79
2019-03-11T06:04:47.875Z,19.77
2019-03-11T06:07:16.865Z,19.77
2019-03-11T06:09:45.701Z,19.74
2019-03-11T06:12:14.565Z,19.72
2019-03-11T06:14:43.423Z,19.71
2019-03-11T06:17:12.350Z,19.70
2019-03-11T06:19:41.182Z,19.69
2019-03-11T06:22:25.574Z,19.67
2019-03-11T06:24:54.458Z,19.66
2019-03-11T06:27:23.212Z,19.65
2019-03-11T06:29:52.157Z,19.63
2019-03-11T06:32:21.080Z,19.63
2019-03-11T06:34:50.116Z,19.63
2019-03-11T06:37:18.968Z,19.62
2019-03-11T06:39:47.770Z,19.59
2019-03-11T06:42:16.734Z,19.61
2019-03-11T06:44:45.665Z,19.64
2019-03-11T06:47:14.442Z,19.66
2019-03-11T06:49:43.348Z,19.69
2019-03-11T06:52:12.220Z,19.72
2019-03-11T06:54:41.173Z,19.74
2019-03-11T06:57:12.576Z,19.77
2019-03-11T06:59:40.713Z,19.80
2019-03-11T07:02:09.648Z,19.83
2019-03-11T07:04:38.474Z,19.85
2019-03-11T07:07:07.421Z,19.87
2019-03-11T07:09:36.262Z,19.90
2019-03-11T07:12:05.207Z,19.93
2019-03-11T07:14:34.055Z,19.94
2019-03-11T07:17:03.228Z,19.91
2019-03-11T07:19:32.083Z,19.96
2019-03-11T07:22:00.917Z,19.96
2019-03-11T07:24:29.821Z,19.97
2019-03-11T07:26:58.755Z,19.99
2019-03-11T07:29:27.705Z,19.99
2019-03-11T07:31:56.531Z,20.04
2019-03-11T07:34:25.261Z,20.04
2019-03-11T07:36:54.074Z,20.06
2019-03-11T07:39:22.966Z,20.07
2019-03-11T07:41:52.064Z,20.08
2019-03-11T07:44:20.882Z,20.11
2019-03-11T07:46:49.806Z,19.96
2019-03-11T07:49:18.626Z,19.64
2019-03-11T07:51:47.531Z,19.29
2019-03-11T07:54:16.685Z,18.99
2019-03-11T07:56:45.520Z,18.77
2019-03-11T07:59:14.539Z,18.61
2019-03-11T08:01:43.391Z,18.45
2019-03-11T08:04:12.216Z,18.26
2019-03-11T08:06:41.157Z,18.18
2019-03-11T08:09:09.995Z,18.19
2019-03-11T08:11:38.852Z,18.25
2019-03-11T08:14:07.617Z,18.33
2019-03-11T08:16:36.592Z,18.43
2019-03-11T08:19:05.541Z,18.50
2019-03-11T08:21:34.460Z,18.55
2019-03-11T08:24:03.365Z,18.60
2019-03-11T08:26:32.315Z,18.62
2019-03-11T08:29:01.177Z,18.67
2019-03-11T08:31:30.085Z,18.72
2019-03-11T08:33:58.949Z,18.77
2019-03-11T08:36:27.777Z,18.82
2019-03-11T08:38:56.647Z,18.90
2019-03-11T08:41:25.575Z,18.96
2019-03-11T08:43:54.389Z,19.02
2019-03-11T08:46:23.122Z,19.01
2019-03-11T08:48:52.070Z,19.00
2019-03-11T08:51:20.884Z,19.02
2019-03-11T08:53:49.888Z,19.09
2019-03-11T08:56:18.883Z,19.16
2019-03-11T08:58:47.864Z,19.22
2019-03-11T09:01:16.739Z,19.28
2019-03-11T09:03:47.838Z,19.33
2019-03-11T09:06:16.340Z,19.29
2019-03-11T09:08:45.164Z,19.32
2019-03-11T09:11:14.062Z,19.35
2019-03-11T09:13:42.887Z,19.39
2019-03-11T09:16:11.791Z,19.45
2019-03-11T09:18:40.653Z,19.49
2019-03-11T09:21:09.574Z,19.53
2019-03-11T09:23:38.493Z,19.57
2019-03-11T09:26:07.396Z,19.59
2019-03-11T09:28:36.299Z,19.62
2019-03-11T09:31:05.259Z,19.64
2019-03-11T09:33:34.189Z,19.66
2019-03-11T09:36:03.065Z,19.64
2019-03-11T09:38:31.978Z,19.65
2019-03-11T09:41:01.009Z,19.68
2019-03-11T09:43:29.854Z,19.68
2019-03-11T09:45:58.701Z,19.64
2019-03-11T09:48:27.619Z,19.58
2019-03-11T09:50:58.998Z,19.52
2019-03-11T09:53:26.945Z,19.45
2019-03-11T09:55:55.767Z,19.38
2019-03-11T09:58:24.600Z,19.34
2019-03-11T10:00:53.834Z,19.31
2019-03-11T10:03:22.653Z,19.29
2019-03-11T10:05:51.545Z,19.26
2019-03-11T10:08:20.410Z,19.28
2019-03-11T10:10:49.359Z,19.30
2019-03-11T10:13:18.357Z,19.28
2019-03-11T10:15:47.153Z,19.30
2019-03-11T10:18:16.159Z,19.31
2019-03-11T10:20:45.038Z,19.39
2019-03-11T10:23:13.920Z,19.43
2019-03-11T10:25:42.887Z,19.43
2019-03-11T10:28:11.808Z,19.42
2019-03-11T10:30:40.664Z,19.40
2019-03-11T10:33:09.581Z,19.36
2019-03-11T10:35:38.496Z,19.32
2019-03-11T10:38:07.464Z,19.28
2019-03-11T10:40:36.296Z,19.25
2019-03-11T10:43:05.135Z,19.21
2019-03-11T10:45:33.947Z,19.16
2019-03-11T10:48:02.892Z,19.14
2019-03-11T10:50:31.729Z,19.13
2019-03-11T10:53:00.600Z,19.16
2019-03-11T10:55:29.441Z,19.20
2019-03-11T10:57:58.195Z,19.30
2019-03-11T11:00:27.835Z,19.39
2019-03-11T11:02:56.848Z,19.42
2019-03-11T11:05:25.717Z,19.42
2019-03-11T11:07:54.605Z,19.44
2019-03-11T11:10:23.580Z,19.44
2019-03-11T11:12:52.491Z,19.44
2019-03-11T11:15:22.170Z,19.41
2019-03-11T11:17:51.170Z,19.36
2019-03-11T11:20:20.084Z,19.30
2019-03-11T11:22:49.002Z,19.27
2019-03-11T11:25:18.657Z,19.24
2019-03-11T11:27:47.408Z,19.23
2019-03-11T11:30:18.237Z,19.23
2019-03-11T11:32:47.215Z,19.21
2019-03-11T11:35:17.012Z,19.26
2019-03-11T11:37:45.986Z,19.27
2019-03-11T11:40:17.178Z,19.27
2019-03-11T11:42:45.968Z,19.26
2019-03-11T11:45:16.605Z,19.22
2019-03-11T11:47:45.655Z,19.20
2019-03-11T11:50:16.500Z,19.18
2019-03-11T11:52:45.315Z,19.19
2019-03-11T11:55:14.505Z,19.17
2019-03-11T11:57:43.345Z,19.18
2019-03-11T12:00:15.909Z,19.15
2019-03-11T12:02:44.873Z,19.16
2019-03-11T12:05:13.725Z,19.20
2019-03-11T12:07:42.656Z,19.26
2019-03-11T12:10:13.195Z,19.29
2019-03-11T12:12:42.109Z,19.35
2019-03-11T12:15:11.011Z,19.39
2019-03-11T12:17:40.139Z,19.38
2019-03-11T12:20:11.479Z,19.37
2019-03-11T12:22:42.670Z,19.32
2019-03-11T12:25:11.316Z,19.23
2019-03-11T12:27:40.240Z,19.14
2019-03-11T12:30:12.946Z,19.05
2019-03-11T12:32:41.837Z,18.95
2019-03-11T12:35:10.898Z,18.82
2019-03-11T12:37:39.893Z,18.74
2019-03-11T12:40:09.563Z,18.68
2019-03-11T12:42:38.402Z,18.69
2019-03-11T12:45:08.767Z,18.70
2019-03-11T12:47:37.794Z,18.70
2019-03-11T12:50:07.675Z,18.70
2019-03-11T12:52:36.683Z,18.70
2019-03-11T12:55:05.616Z,18.72
2019-03-11T12:57:34.676Z,18.74
2019-03-11T13:00:03.660Z,18.75
2019-03-11T13:02:32.833Z,18.77
2019-03-11T13:05:01.830Z,18.78
2019-03-11T13:07:30.935Z,18.79
2019-03-11T13:09:59.867Z,18.81
2019-03-11T13:12:28.896Z,18.84
2019-03-11T13:14:57.803Z,18.85
2019-03-11T13:17:26.827Z,18.86
2019-03-11T13:19:56.253Z,18.86
2019-03-11T13:22:25.217Z,18.89
2019-03-11T13:24:54.140Z,18.90
2019-03-11T13:27:23.019Z,18.92
2019-03-11T13:29:52.194Z,18.93
2019-03-11T13:32:21.148Z,18.94
2019-03-11T13:34:49.935Z,18.95
2019-03-11T13:37:20.590Z,18.95
2019-03-11T13:39:49.685Z,18.95
2019-03-11T13:42:18.765Z,18.95
2019-03-11T13:44:47.695Z,18.94
2019-03-11T13:47:16.587Z,18.94
2019-03-11T13:49:45.584Z,18.93
2019-03-11T13:52:20.388Z,18.92
2019-03-11T13:54:49.344Z,18.92
2019-03-11T13:57:18.276Z,18.91
2019-03-11T13:59:47.256Z,18.90
2019-03-11T14:02:16.228Z,18.92
2019-03-11T14:04:45.272Z,18.91
2019-03-11T14:07:14.268Z,18.93
2019-03-11T14:09:43.195Z,18.96
2019-03-11T14:12:12.012Z,18.96
2019-03-11T14:14:40.881Z,18.93
2019-03-11T14:17:09.726Z,18.91
2019-03-11T14:19:38.907Z,18.90
2019-03-11T14:22:07.885Z,18.87
2019-03-11T14:24:36.939Z,18.83
2019-03-11T14:27:05.330Z,18.81
2019-03-11T14:29:34.321Z,18.79
2019-03-11T14:32:03.389Z,18.79
2019-03-11T14:34:32.503Z,18.82
2019-03-11T14:37:01.423Z,18.81
2019-03-11T14:39:30.609Z,18.82
2019-03-11T14:41:59.533Z,18.82
2019-03-11T14:44:28.568Z,18.82
2019-03-11T14:46:57.624Z,18.82
2019-03-11T14:49:26.601Z,18.82
2019-03-11T14:51:55.685Z,18.80
2019-03-11T14:54:24.990Z,18.78
2019-03-11T14:56:53.933Z,18.75
2019-03-11T14:59:22.902Z,18.73
2019-03-11T15:01:51.902Z,18.71
2019-03-11T15:04:20.814Z,18.72
2019-03-11T15:06:49.943Z,18.70
2019-03-11T15:09:18.896Z,18.67
2019-03-11T15:11:48.134Z,18.69
2019-03-11T15:14:17.232Z,18.72
2019-03-11T15:16:46.212Z,18.43
2019-03-11T15:19:15.155Z,18.91
2019-03-11T15:21:44.198Z,19.05
2019-03-11T15:24:13.240Z,19.18
2019-03-11T15:26:42.072Z,19.33
2019-03-11T15:29:11.036Z,19.41
2019-03-11T15:31:40.047Z,19.46
2019-03-11T15:34:09.068Z,19.49
2019-03-11T15:36:38.111Z,19.52
2019-03-11T15:39:07.219Z,19.54
2019-03-11T15:41:36.171Z,19.57
2019-03-11T15:44:06.030Z,19.60
2019-03-11T15:46:39.231Z,19.63
2019-03-11T15:49:05.775Z,19.63
2019-03-11T15:51:36.802Z,19.64
2019-03-11T15:54:05.372Z,19.67
2019-03-11T15:56:34.668Z,19.70
2019-03-11T15:59:03.752Z,19.74
2019-03-11T16:01:32.735Z,19.81
2019-03-11T16:04:01.745Z,19.90
2019-03-11T16:06:30.709Z,19.98
2019-03-11T16:09:02.025Z,20.05
2019-03-11T16:11:30.670Z,20.09
2019-03-11T16:13:59.783Z,20.11
2019-03-11T16:16:28.731Z,20.15
2019-03-11T16:18:57.742Z,20.20
2019-03-11T16:21:26.737Z,20.25
2019-03-11T16:23:55.884Z,20.29
2019-03-11T16:26:25.048Z,20.30
2019-03-11T16:28:54.626Z,20.32
2019-03-11T16:31:23.710Z,20.32
2019-03-11T16:33:52.774Z,20.35
2019-03-11T16:36:21.922Z,20.36
2019-03-11T16:38:51.398Z,20.37
2019-03-11T16:41:20.538Z,20.37
2019-03-11T16:43:49.712Z,20.34
2019-03-11T16:46:19.467Z,20.33
2019-03-11T16:48:49.314Z,20.34
2019-03-11T16:51:18.279Z,20.37
2019-03-11T16:53:47.764Z,20.39
2019-03-11T16:56:16.741Z,20.44
2019-03-11T16:58:46.390Z,20.51
2019-03-11T17:01:15.760Z,20.59
2019-03-11T17:03:44.782Z,20.66
2019-03-11T17:06:14.572Z,20.75
2019-03-11T17:08:44.027Z,20.80
2019-03-11T17:11:13.211Z,20.87
